createdAt,value
2023-09-12T00:01:59.377Z,23.21
2023-09-12T00:04:01.970Z,23.07
2023-09-12T00:06:06.059Z,23.17
2023-09-12T00:08:08.719Z,23.17
2023-09-12T00:10:11.611Z,23.19
2023-09-12T00:12:17.296Z,23.21
2023-09-12T00:14:20.280Z,23.23
2023-09-12T00:16:22.696Z,23.23
2023-09-12T00:18:25.242Z,23.24
2023-09-12T00:20:27.820Z,23.23
2023-09-12T00:22:29.968Z,23.19
2023-09-12T00:24:32.444Z,23.18
2023-09-12T00:26:34.776Z,23.21
2023-09-12T00:28:39.127Z,23.21
2023-09-12T00:30:41.417Z,23.21
2023-09-12T00:32:43.846Z,23.23
2023-09-12T00:34:46.302Z,23.21
2023-09-12T00:36:48.960Z,23.21
2023-09-12T00:38:53.759Z,23.19
2023-09-12T00:40:56.280Z,23.20
2023-09-12T00:42:59.893Z,23.22
2023-09-12T00:45:02.169Z,23.23
2023-09-12T00:47:05.281Z,23.26
2023-09-12T00:49:09.979Z,23.17
2023-09-12T00:51:12.634Z,23.23
2023-09-12T00:53:16.810Z,23.20
2023-09-12T00:55:19.339Z,23.19
2023-09-12T00:57:23.061Z,23.18
2023-09-12T00:59:27.141Z,23.13
2023-09-12T01:01:30.043Z,23.19
2023-09-12T01:03:33.837Z,23.16
2023-09-12T01:05:37.218Z,23.22
2023-09-12T01:07:40.831Z,23.24
2023-09-12T01:09:43.232Z,23.23
2023-09-12T01:11:46.355Z,23.21
2023-09-12T01:13:48.985Z,23.21
2023-09-12T01:15:51.655Z,23.25
2023-09-12T01:17:54.441Z,23.25
2023-09-12T01:19:58.475Z,23.24
2023-09-12T01:22:17.792Z,23.25
2023-09-12T01:24:40.322Z,23.27
2023-09-12T01:26:57.994Z,23.29
2023-09-12T01:29:02.561Z,23.28
2023-09-12T01:31:05.692Z,23.20
2023-09-12T01:33:08.891Z,23.20
2023-09-12T01:35:11.696Z,23.20
2023-09-12T01:37:14.456Z,23.25
2023-09-12T01:39:17.127Z,23.23
2023-09-12T01:41:20.584Z,23.27
2023-09-12T01:43:26.384Z,23.16
2023-09-12T01:45:29.530Z,23.19
2023-09-12T01:47:33.207Z,23.24
2023-09-12T01:49:37.506Z,23.15
2023-09-12T01:51:40.971Z,23.15
2023-09-12T01:53:47.010Z,23.14
2023-09-12T01:55:50.837Z,23.15
2023-09-12T01:57:53.726Z,23.21
2023-09-12T01:59:56.359Z,23.19
2023-09-12T02:01:59.124Z,23.18
2023-09-12T02:04:01.959Z,23.15
2023-09-12T02:06:05.020Z,23.14
2023-09-12T02:08:07.887Z,23.14
2023-09-12T02:10:11.499Z,23.17
2023-09-12T02:12:14.182Z,23.15
2023-09-12T02:14:16.903Z,23.13
2023-09-12T02:16:19.675Z,23.14
2023-09-12T02:18:22.358Z,23.14
2023-09-12T02:20:25.300Z,23.16
2023-09-12T02:22:28.066Z,23.15
2023-09-12T02:24:30.730Z,23.14
2023-09-12T02:26:37.638Z,23.14
2023-09-12T02:28:40.892Z,23.09
2023-09-12T02:30:44.106Z,23.06
2023-09-12T02:32:46.738Z,23.07
2023-09-12T02:34:49.199Z,23.07
2023-09-12T02:36:51.774Z,23.05
2023-09-12T02:38:54.540Z,23.04
2023-09-12T02:40:57.617Z,23.00
2023-09-12T02:43:00.248Z,23.00
2023-09-12T02:45:02.853Z,22.99
2023-09-12T02:47:08.097Z,22.92
2023-09-12T02:49:10.752Z,22.92
2023-09-12T02:51:13.852Z,22.86
2023-09-12T02:53:16.738Z,22.90
2023-09-12T02:55:19.586Z,22.87
2023-09-12T02:57:22.885Z,22.90
2023-09-12T02:59:25.267Z,22.92
2023-09-12T03:01:29.704Z,22.83
2023-09-12T03:03:32.196Z,22.79
2023-09-12T03:05:34.588Z,22.85
2023-09-12T03:07:37.046Z,22.85
2023-09-12T03:09:39.957Z,22.79
2023-09-12T03:11:42.437Z,22.79
2023-09-12T03:13:44.957Z,22.83
2023-09-12T03:15:47.232Z,22.81
2023-09-12T03:17:49.656Z,22.84
2023-09-12T03:19:53.113Z,22.83
2023-09-12T03:21:55.406Z,22.84
2023-09-12T03:23:57.698Z,22.84
2023-09-12T03:26:08.130Z,22.72
2023-09-12T03:28:10.537Z,22.66
2023-09-12T03:30:13.375Z,22.63
2023-09-12T03:32:15.932Z,22.68
2023-09-12T03:34:18.337Z,22.65
2023-09-12T03:36:20.895Z,22.63
2023-09-12T03:38:23.148Z,22.58
2023-09-12T03:40:25.668Z,22.63
2023-09-12T03:42:37.737Z,22.61
2023-09-12T03:44:44.397Z,22.62
2023-09-12T03:46:46.688Z,22.59
2023-09-12T03:48:49.219Z,22.52
2023-09-12T03:50:51.717Z,22.50
2023-09-12T03:52:53.981Z,22.53
2023-09-12T03:54:56.513Z,22.55
2023-09-12T03:56:58.920Z,22.57
2023-09-12T03:59:01.449Z,22.46
2023-09-12T04:01:03.846Z,22.55
2023-09-12T04:03:06.324Z,22.57
2023-09-12T04:05:09.487Z,22.53
2023-09-12T04:07:11.944Z,22.56
2023-09-12T04:09:14.453Z,22.55
2023-09-12T04:11:16.733Z,22.50
2023-09-12T04:13:19.084Z,22.54
2023-09-12T04:15:21.720Z,22.53
2023-09-12T04:17:24.160Z,22.40
2023-09-12T04:19:27.120Z,22.42
2023-09-12T04:21:29.432Z,22.46
2023-09-12T04:23:31.945Z,22.48
2023-09-12T04:25:35.063Z,22.47
2023-09-12T04:27:37.418Z,22.48
2023-09-12T04:29:40.822Z,22.41
2023-09-12T04:31:43.030Z,22.39
2023-09-12T04:33:45.402Z,22.38
2023-09-12T04:35:48.036Z,22.41
2023-09-12T04:37:50.298Z,22.37
2023-09-12T04:39:53.320Z,22.24
2023-09-12T04:41:55.717Z,22.22
2023-09-12T04:44:00.134Z,22.29
2023-09-12T04:46:02.684Z,22.32
2023-09-12T04:48:05.866Z,22.28
2023-09-12T04:50:08.665Z,22.24
2023-09-12T04:52:11.088Z,22.27
2023-09-12T04:54:13.374Z,22.26
2023-09-12T04:56:15.636Z,22.28
2023-09-12T04:58:17.932Z,22.26
2023-09-12T05:00:20.353Z,22.29
2023-09-12T05:02:23.068Z,22.30
2023-09-12T05:04:25.419Z,22.32
2023-09-12T05:06:27.825Z,22.29
2023-09-12T05:08:30.782Z,22.32
2023-09-12T05:10:33.057Z,22.29
2023-09-12T05:12:35.486Z,22.21
2023-09-12T05:14:37.977Z,22.19
2023-09-12T05:16:40.344Z,22.18
2023-09-12T05:18:42.943Z,22.19
2023-09-12T05:20:45.423Z,22.21
2023-09-12T05:22:47.835Z,22.23
2023-09-12T05:24:51.121Z,22.21
2023-09-12T05:26:53.694Z,22.13
2023-09-12T05:28:55.991Z,22.09
2023-09-12T05:30:58.339Z,22.11
2023-09-12T05:33:00.804Z,22.18
2023-09-12T05:35:19.222Z,22.18
2023-09-12T05:37:23.935Z,22.17
2023-09-12T05:39:26.369Z,22.21
2023-09-12T05:41:28.657Z,22.02
2023-09-12T05:43:30.905Z,22.13
2023-09-12T05:45:34.531Z,22.17
2023-09-12T05:47:36.841Z,22.11
2023-09-12T05:49:39.089Z,22.13
2023-09-12T05:51:41.699Z,22.14
2023-09-12T05:53:43.896Z,22.15
2023-09-12T05:55:46.290Z,22.17
2023-09-12T05:57:53.813Z,22.19
2023-09-12T05:59:56.124Z,22.14
2023-09-12T06:01:58.317Z,22.14
2023-09-12T06:04:00.716Z,22.18
2023-09-12T06:06:03.626Z,22.21
2023-09-12T06:08:06.447Z,22.22
2023-09-12T06:10:09.726Z,22.19
2023-09-12T06:12:12.011Z,22.22
2023-09-12T06:14:14.385Z,22.26
2023-09-12T06:16:16.922Z,22.28
2023-09-12T06:18:20.564Z,22.25
2023-09-12T06:20:23.506Z,22.27
2023-09-12T06:22:25.907Z,22.27
2023-09-12T06:24:28.298Z,22.31
2023-09-12T06:26:31.066Z,22.28
2023-09-12T06:28:33.498Z,22.31
2023-09-12T06:30:35.860Z,22.31
2023-09-12T06:32:38.594Z,22.27
2023-09-12T06:34:41.043Z,22.26
2023-09-12T06:36:46.441Z,22.25
2023-09-12T06:38:49.931Z,22.26
2023-09-12T06:40:53.089Z,22.30
2023-09-12T06:42:55.687Z,22.28
2023-09-12T06:44:58.095Z,22.24
2023-09-12T06:47:00.252Z,22.19
2023-09-12T06:49:03.308Z,22.25
2023-09-12T06:51:14.895Z,22.16
2023-09-12T06:53:19.370Z,22.19
2023-09-12T06:55:22.784Z,22.17
2023-09-12T06:57:26.390Z,22.18
2023-09-12T06:59:28.581Z,22.26
2023-09-12T07:01:31.185Z,22.25
2023-09-12T07:03:35.670Z,22.29
2023-09-12T07:05:40.118Z,22.27
2023-09-12T07:07:42.682Z,22.29
2023-09-12T07:09:45.478Z,22.32
2023-09-12T07:11:48.765Z,22.29
2023-09-12T07:13:53.076Z,22.30
2023-09-12T07:15:58.674Z,22.27
2023-09-12T07:18:01.433Z,22.23
2023-09-12T07:20:04.249Z,22.13
2023-09-12T07:22:06.656Z,22.13
2023-09-12T07:24:09.288Z,22.23
2023-09-12T07:26:16.386Z,22.31
2023-09-12T07:28:21.049Z,22.32
2023-09-12T07:30:23.749Z,22.29
2023-09-12T07:32:26.457Z,22.31
2023-09-12T07:34:28.995Z,22.26
2023-09-12T07:36:31.801Z,22.33
2023-09-12T07:38:36.738Z,22.32
2023-09-12T07:40:39.560Z,22.34
2023-09-12T07:42:41.858Z,22.41
2023-09-12T07:44:44.600Z,22.42
2023-09-12T07:46:46.928Z,22.32
2023-09-12T07:48:49.580Z,22.44
2023-09-12T07:50:53.148Z,22.24
2023-09-12T07:52:56.980Z,22.22
2023-09-12T07:55:02.430Z,22.19
2023-09-12T07:57:05.354Z,22.18
2023-09-12T07:59:07.646Z,22.06
2023-09-12T08:01:11.483Z,22.07
2023-09-12T08:03:14.140Z,21.96
2023-09-12T08:05:17.254Z,21.88
2023-09-12T08:07:19.831Z,21.83
2023-09-12T08:09:22.316Z,21.84
2023-09-12T08:11:24.821Z,21.93
2023-09-12T08:13:29.490Z,22.02
2023-09-12T08:15:32.313Z,22.05
2023-09-12T08:17:34.701Z,22.12
2023-09-12T08:19:37.077Z,21.92
2023-09-12T08:21:40.141Z,21.98
2023-09-12T08:23:42.894Z,21.99
2023-09-12T08:25:45.585Z,22.09
2023-09-12T08:27:48.308Z,22.08
2023-09-12T08:29:50.753Z,22.25
2023-09-12T08:31:55.105Z,22.32
2023-09-12T08:33:57.597Z,22.38
2023-09-12T08:35:59.990Z,22.40
2023-09-12T08:38:02.879Z,22.41
2023-09-12T08:40:09.250Z,22.45
2023-09-12T08:42:16.746Z,22.53
2023-09-12T08:44:21.021Z,22.52
2023-09-12T08:46:25.041Z,22.44
2023-09-12T08:48:31.056Z,22.53
2023-09-12T08:50:35.839Z,22.64
2023-09-12T08:52:40.642Z,22.57
2023-09-12T08:54:46.869Z,22.54
2023-09-12T08:56:49.463Z,22.51
2023-09-12T08:58:56.182Z,22.44
2023-09-12T09:00:58.918Z,22.42
2023-09-12T09:03:01.866Z,22.37
2023-09-12T09:05:07.555Z,22.48
2023-09-12T09:07:12.460Z,22.57
2023-09-12T09:09:15.779Z,22.65
2023-09-12T09:11:18.990Z,22.72
2023-09-12T09:13:21.877Z,22.74
2023-09-12T09:15:27.581Z,22.61
2023-09-12T09:19:46.610Z,22.80
2023-09-12T09:21:49.521Z,22.90
2023-09-12T09:23:54.648Z,22.83
2023-09-12T09:25:57.890Z,22.95
2023-09-12T09:28:01.258Z,22.94
2023-09-12T09:30:05.108Z,23.04
2023-09-12T09:32:19.766Z,23.17
2023-09-12T09:34:26.047Z,23.19
2023-09-12T09:36:29.867Z,23.12
2023-09-12T09:38:33.084Z,23.24
2023-09-12T09:40:37.519Z,23.38
2023-09-12T09:42:40.374Z,23.38
2023-09-12T09:44:43.748Z,23.42
2023-09-12T09:46:47.281Z,23.54
2023-09-12T09:48:54.369Z,23.64
2023-09-12T09:51:07.163Z,23.69
2023-09-12T09:53:11.974Z,23.77
2023-09-12T09:55:16.894Z,23.85
2023-09-12T09:57:20.394Z,23.88
2023-09-12T09:59:25.048Z,24.00
2023-09-12T10:01:30.923Z,23.98
2023-09-12T10:03:38.242Z,24.06
2023-09-12T10:05:43.062Z,23.90
2023-09-12T10:07:49.892Z,23.90
2023-09-12T10:09:53.427Z,24.05
2023-09-12T10:11:59.772Z,24.11
2023-09-12T10:14:05.494Z,24.09
2023-09-12T10:16:08.605Z,24.03
2023-09-12T10:18:29.545Z,24.05
2023-09-12T10:20:46.977Z,24.17
2023-09-12T10:23:02.138Z,24.22
2023-09-12T10:25:05.382Z,24.28
2023-09-12T10:27:08.335Z,24.26
2023-09-12T10:29:14.094Z,24.23
2023-09-12T10:31:18.543Z,24.22
2023-09-12T10:33:21.490Z,24.24
2023-09-12T10:35:24.376Z,24.37
2023-09-12T10:37:30.051Z,24.39
2023-09-12T10:39:34.164Z,24.37
2023-09-12T10:41:42.528Z,24.43
2023-09-12T10:43:49.027Z,24.55
2023-09-12T10:45:53.606Z,24.47
2023-09-12T10:47:56.209Z,24.48
2023-09-12T10:49:59.227Z,24.61
2023-09-12T10:52:01.922Z,24.70
2023-09-12T10:54:04.938Z,24.71
2023-09-12T10:56:11.712Z,24.55
2023-09-12T10:58:14.235Z,24.61
2023-09-12T11:00:17.103Z,24.68
2023-09-12T11:02:31.562Z,24.71
2023-09-12T11:04:35.905Z,24.75
2023-09-12T11:06:38.516Z,24.79
2023-09-12T11:08:42.873Z,24.84
2023-09-12T11:10:46.518Z,24.96
2023-09-12T11:12:52.496Z,24.79
2023-09-12T11:15:07.548Z,24.89
2023-09-12T11:17:10.567Z,24.90
2023-09-12T11:19:27.696Z,24.91
2023-09-12T11:21:39.838Z,24.82
2023-09-12T11:23:42.474Z,24.79
2023-09-12T11:25:45.238Z,24.77
2023-09-12T11:28:05.760Z,24.68
2023-09-12T11:30:09.117Z,24.70
2023-09-12T11:32:11.635Z,24.66
2023-09-12T11:34:16.686Z,24.83
2023-09-12T11:36:22.224Z,24.85
2023-09-12T11:38:30.698Z,24.94
2023-09-12T11:40:34.804Z,25.02
2023-09-12T11:42:41.548Z,25.02
2023-09-12T11:44:46.340Z,24.99
2023-09-12T11:46:51.539Z,25.10
2023-09-12T11:48:55.516Z,25.23
2023-09-12T11:50:59.530Z,25.10
2023-09-12T11:53:03.236Z,25.14
2023-09-12T11:55:06.357Z,25.23
2023-09-12T11:57:11.642Z,25.20
2023-09-12T11:59:14.670Z,25.24
2023-09-12T12:01:17.592Z,25.37
2023-09-12T12:03:23.110Z,25.38
2023-09-12T12:05:26.280Z,25.50
2023-09-12T12:07:28.685Z,25.49
2023-09-12T12:09:32.813Z,25.44
2023-09-12T12:11:35.305Z,25.47
2023-09-12T12:13:37.841Z,25.47
2023-09-12T12:15:40.652Z,25.53
2023-09-12T12:17:44.228Z,25.57
2023-09-12T12:19:47.926Z,25.55
2023-09-12T12:21:50.568Z,25.48
2023-09-12T12:24:04.585Z,25.54
2023-09-12T12:26:11.121Z,25.50
2023-09-12T12:28:13.710Z,25.46
2023-09-12T12:30:16.375Z,25.35
2023-09-12T12:32:21.267Z,25.29
2023-09-12T12:35:15.859Z,25.21
2023-09-12T12:36:55.677Z,25.29
2023-09-12T12:39:01.647Z,25.18
2023-09-12T12:41:03.996Z,25.14
2023-09-12T12:43:06.689Z,25.10
2023-09-12T12:45:18.886Z,25.07
2023-09-12T12:47:24.646Z,25.07
2023-09-12T12:49:27.285Z,24.83
2023-09-12T12:51:31.829Z,24.83
2023-09-12T12:53:52.057Z,24.80
2023-09-12T12:55:55.966Z,24.90
2023-09-12T12:57:58.476Z,24.83
2023-09-12T13:00:01.722Z,24.91
2023-09-12T13:02:04.757Z,24.91
2023-09-12T13:04:09.112Z,24.79
2023-09-12T13:06:17.084Z,24.68
2023-09-12T13:08:19.743Z,24.79
2023-09-12T13:10:22.856Z,24.63
2023-09-12T13:12:28.610Z,24.85
2023-09-12T13:14:36.811Z,24.84
2023-09-12T13:16:42.064Z,24.76
2023-09-12T13:18:45.144Z,24.86
2023-09-12T13:20:47.591Z,24.96
2023-09-12T13:22:50.001Z,24.96
2023-09-12T13:24:52.665Z,24.94
2023-09-12T13:26:55.434Z,24.93
2023-09-12T13:28:59.624Z,25.02
2023-09-12T13:31:02.415Z,25.13
2023-09-12T13:33:05.419Z,25.16
2023-09-12T13:35:09.590Z,25.29
2023-09-12T13:37:13.539Z,25.30
2023-09-12T13:39:16.284Z,25.21
2023-09-12T13:41:19.661Z,25.23
2023-09-12T13:43:21.920Z,25.22
2023-09-12T13:45:24.243Z,25.12
2023-09-12T13:47:27.470Z,25.11
2023-09-12T13:49:29.961Z,25.19
2023-09-12T13:51:32.531Z,25.19
2023-09-12T13:53:35.273Z,25.09
2023-09-12T13:56:02.102Z,25.03
2023-09-12T13:58:00.904Z,24.94
2023-09-12T14:00:03.619Z,24.92
2023-09-12T14:02:06.804Z,24.93
2023-09-12T14:04:10.035Z,24.85
2023-09-12T14:06:13.520Z,24.76
2023-09-12T14:08:16.180Z,24.77
2023-09-12T14:10:30.649Z,24.69
2023-09-12T14:12:37.732Z,24.78
2023-09-12T14:14:42.613Z,24.69
2023-09-12T14:16:48.963Z,24.69
2023-09-12T14:18:52.913Z,24.70
2023-09-12T14:20:56.941Z,24.67
2023-09-12T14:23:00.485Z,24.71
2023-09-12T14:25:03.687Z,24.60
2023-09-12T14:27:11.810Z,24.56
2023-09-12T14:29:20.714Z,24.46
2023-09-12T14:31:25.126Z,24.47
2023-09-12T14:33:27.937Z,24.48
2023-09-12T14:35:31.247Z,24.50
2023-09-12T14:37:34.087Z,24.43
2023-09-12T14:39:36.553Z,24.40
2023-09-12T14:41:39.380Z,24.36
2023-09-12T14:43:42.283Z,24.38
2023-09-12T14:45:45.090Z,24.32
2023-09-12T14:47:47.825Z,24.31
2023-09-12T14:49:52.053Z,24.20
2023-09-12T14:51:57.201Z,24.13
2023-09-12T14:53:59.673Z,24.08
2023-09-12T14:56:02.568Z,24.07
2023-09-12T14:58:05.298Z,23.95
2023-09-12T15:00:08.821Z,23.94
2023-09-12T15:02:11.454Z,24.00
2023-09-12T15:04:14.197Z,23.99
2023-09-12T15:06:17.273Z,24.09
2023-09-12T15:08:20.797Z,23.94
2023-09-12T15:10:24.156Z,23.85
2023-09-12T15:12:27.591Z,23.95
2023-09-12T15:14:33.049Z,23.90
2023-09-12T15:16:36.381Z,23.99
2023-09-12T15:18:42.045Z,23.95
2023-09-12T15:20:44.699Z,24.02
2023-09-12T15:22:47.096Z,24.14
2023-09-12T15:24:49.916Z,24.17
2023-09-12T15:26:52.631Z,24.22
2023-09-12T15:28:55.140Z,24.33
2023-09-12T15:30:57.853Z,24.41
2023-09-12T15:33:00.607Z,24.64
2023-09-12T15:35:04.305Z,24.77
2023-09-12T15:39:18.920Z,25.28
2023-09-12T15:41:21.790Z,25.42
2023-09-12T15:43:25.743Z,25.39
2023-09-12T15:45:46.479Z,25.32
2023-09-12T15:47:52.768Z,25.29
2023-09-12T15:49:55.877Z,25.15
2023-09-12T15:51:58.971Z,25.33
2023-09-12T15:54:01.291Z,25.16
2023-09-12T15:56:03.825Z,25.03
2023-09-12T15:58:06.620Z,25.00
2023-09-12T16:00:12.598Z,24.70
2023-09-12T16:02:15.492Z,24.76
2023-09-12T16:04:18.512Z,24.70
2023-09-12T16:06:22.076Z,24.60
2023-09-12T16:08:24.743Z,24.25
2023-09-12T16:10:27.470Z,24.30
2023-09-12T16:12:30.159Z,24.30
2023-09-12T16:14:32.751Z,24.16
2023-09-12T16:16:35.172Z,24.04
2023-09-12T16:18:39.656Z,24.09
2023-09-12T16:20:42.353Z,23.86
2023-09-12T16:22:45.232Z,23.76
2023-09-12T16:24:48.848Z,23.73
2023-09-12T16:26:51.722Z,23.62
2023-09-12T16:28:54.490Z,23.57
2023-09-12T16:30:57.322Z,23.48
2023-09-12T16:33:00.541Z,23.50
2023-09-12T16:35:03.549Z,23.40
2023-09-12T16:39:09.537Z,23.33
2023-09-12T16:41:12.263Z,23.32
2023-09-12T16:43:14.906Z,23.32
2023-09-12T16:45:17.408Z,23.33
2023-09-12T16:47:20.415Z,23.28
2023-09-12T16:49:23.333Z,23.29
2023-09-12T16:51:26.381Z,23.25
2023-09-12T16:53:29.599Z,23.23
2023-09-12T16:55:32.712Z,23.24
2023-09-12T16:57:35.596Z,23.16
2023-09-12T16:59:39.746Z,23.12
2023-09-12T17:01:42.731Z,23.11
2023-09-12T17:03:47.058Z,23.10
2023-09-12T17:05:51.038Z,22.99
2023-09-12T17:07:54.181Z,22.98
2023-09-12T17:09:57.125Z,23.02
2023-09-12T17:12:00.174Z,23.03
2023-09-12T17:14:03.041Z,23.06
2023-09-12T17:16:06.259Z,23.08
2023-09-12T17:18:09.397Z,23.08
2023-09-12T17:20:12.290Z,23.11
2023-09-12T17:22:15.297Z,23.15
2023-09-12T17:24:17.820Z,23.11
2023-09-12T17:26:21.077Z,23.14
2023-09-12T17:28:24.062Z,23.07
2023-09-12T17:30:28.353Z,23.13
2023-09-12T17:32:32.860Z,23.15
2023-09-12T17:34:45.208Z,23.15
2023-09-12T17:36:48.384Z,23.14
2023-09-12T17:38:51.449Z,23.07
2023-09-12T17:40:54.446Z,23.08
2023-09-12T17:43:00.857Z,22.88
2023-09-12T17:45:04.994Z,22.69
2023-09-12T17:47:08.335Z,22.54
2023-09-12T17:49:12.330Z,22.37
2023-09-12T17:51:15.568Z,22.26
2023-09-12T17:53:18.575Z,22.11
2023-09-12T17:55:23.738Z,22.02
2023-09-12T17:57:27.033Z,21.89
2023-09-12T17:59:30.079Z,21.78
2023-09-12T18:01:32.975Z,21.74
2023-09-12T18:03:35.970Z,21.66
2023-09-12T18:05:38.870Z,21.60
2023-09-12T18:07:41.499Z,21.53
2023-09-12T18:09:44.029Z,21.42
2023-09-12T18:11:47.511Z,21.43
2023-09-12T18:13:50.496Z,21.42
2023-09-12T18:15:53.567Z,21.42
2023-09-12T18:17:56.671Z,21.40
2023-09-12T18:19:59.976Z,21.37
2023-09-12T18:22:02.831Z,21.36
2023-09-12T18:24:06.166Z,21.31
2023-09-12T18:26:09.235Z,21.34
2023-09-12T18:28:11.631Z,21.33
2023-09-12T18:30:14.398Z,21.36
2023-09-12T18:32:19.685Z,21.38
2023-09-12T18:34:22.818Z,21.36
2023-09-12T18:36:27.895Z,21.38
2023-09-12T18:38:30.687Z,21.38
2023-09-12T18:40:33.781Z,21.37
2023-09-12T18:42:36.624Z,21.38
2023-09-12T18:44:39.303Z,21.39
2023-09-12T18:46:42.280Z,21.41
2023-09-12T18:48:44.606Z,21.32
2023-09-12T18:50:49.502Z,21.40
2023-09-12T18:52:55.869Z,21.27
2023-09-12T18:54:59.008Z,21.33
2023-09-12T18:57:09.680Z,21.41
2023-09-12T18:59:11.727Z,21.45
2023-09-12T19:01:14.550Z,21.47
2023-09-12T19:03:17.177Z,21.43
2023-09-12T19:05:20.273Z,21.44
2023-09-12T19:07:24.284Z,21.44
2023-09-12T19:09:27.575Z,21.39
2023-09-12T19:11:30.041Z,21.36
2023-09-12T19:13:32.483Z,21.27
2023-09-12T19:15:37.350Z,21.30
2023-09-12T19:17:40.463Z,21.22
2023-09-12T19:19:43.090Z,21.28
2023-09-12T19:21:45.648Z,21.24
2023-09-12T19:23:48.208Z,21.17
2023-09-12T19:25:50.984Z,21.22
2023-09-12T19:27:53.778Z,21.20
2023-09-12T19:29:57.309Z,21.17
2023-09-12T19:31:59.840Z,21.04
2023-09-12T19:34:04.916Z,20.92
2023-09-12T19:36:09.218Z,20.91
2023-09-12T19:38:13.674Z,20.88
2023-09-12T19:40:17.546Z,20.88
2023-09-12T19:42:19.908Z,20.76
2023-09-12T19:44:23.127Z,20.81
2023-09-12T19:46:25.560Z,20.73
2023-09-12T19:48:28.004Z,20.61
2023-09-12T19:50:32.899Z,20.66
2023-09-12T19:52:35.400Z,20.51
2023-09-12T19:54:37.824Z,20.44
2023-09-12T19:56:40.671Z,20.44
2023-09-12T19:58:42.974Z,20.38
2023-09-12T20:00:45.656Z,20.35
2023-09-12T20:02:51.054Z,20.26
2023-09-12T20:04:53.668Z,20.18
2023-09-12T20:06:57.099Z,20.07
2023-09-12T20:08:59.669Z,20.15
2023-09-12T20:11:02.183Z,20.21
2023-09-12T20:13:04.966Z,20.23
2023-09-12T20:15:08.190Z,20.23
2023-09-12T20:17:10.584Z,20.12
2023-09-12T20:19:14.137Z,20.16
2023-09-12T20:21:16.789Z,20.13
2023-09-12T20:23:19.330Z,20.05
2023-09-12T20:25:22.964Z,20.02
2023-09-12T20:27:25.470Z,20.01
2023-09-12T20:29:28.109Z,19.95
2023-09-12T20:31:32.000Z,19.92
2023-09-12T20:33:34.954Z,19.89
2023-09-12T20:35:38.195Z,19.95
2023-09-12T20:37:40.931Z,19.94
2023-09-12T20:39:45.055Z,19.85
2023-09-12T20:41:48.787Z,19.77
2023-09-12T20:43:51.288Z,19.84
2023-09-12T20:45:54.728Z,19.80
2023-09-12T20:47:57.201Z,19.83
2023-09-12T20:50:01.012Z,19.85
2023-09-12T20:52:03.489Z,19.80
2023-09-12T20:54:09.790Z,19.81
2023-09-12T20:56:14.693Z,19.70
2023-09-12T20:58:18.797Z,19.67
2023-09-12T21:00:22.493Z,19.69
2023-09-12T21:02:25.209Z,19.60
2023-09-12T21:04:28.423Z,19.67
2023-09-12T21:06:30.998Z,19.63
2023-09-12T21:08:33.421Z,19.66
2023-09-12T21:10:36.052Z,19.65
2023-09-12T21:12:38.496Z,19.64
2023-09-12T21:14:40.885Z,19.67
2023-09-12T21:16:43.464Z,19.65
2023-09-12T21:18:46.183Z,19.64
2023-09-12T21:20:49.990Z,19.63
2023-09-12T21:22:52.535Z,19.55
2023-09-12T21:24:55.056Z,19.62
2023-09-12T21:26:57.566Z,19.50
2023-09-12T21:28:59.837Z,19.56
2023-09-12T21:31:02.212Z,19.53
2023-09-12T21:33:05.194Z,19.49
2023-09-12T21:35:16.897Z,19.43
2023-09-12T21:37:19.161Z,19.43
2023-09-12T21:39:22.053Z,19.37
2023-09-12T21:41:24.331Z,19.34
2023-09-12T21:43:27.339Z,19.29
2023-09-12T21:45:29.650Z,19.33
2023-09-12T21:47:32.198Z,19.31
2023-09-12T21:49:34.529Z,19.37
2023-09-12T21:51:36.980Z,19.29
2023-09-12T21:53:39.356Z,19.32
2023-09-12T21:55:41.747Z,19.37
2023-09-12T21:57:44.025Z,19.30
2023-09-12T21:59:46.428Z,19.20
2023-09-12T22:01:48.936Z,19.22
2023-09-12T22:03:51.330Z,19.19
2023-09-12T22:05:53.756Z,19.26
2023-09-12T22:07:56.017Z,19.15
2023-09-12T22:09:58.711Z,19.24
2023-09-12T22:12:01.182Z,19.08
2023-09-12T22:14:03.464Z,19.17
2023-09-12T22:16:06.049Z,19.21
2023-09-12T22:18:10.053Z,19.23
2023-09-12T22:20:14.027Z,19.24
2023-09-12T22:22:16.493Z,19.24
2023-09-12T22:24:18.716Z,19.19
2023-09-12T22:26:20.995Z,19.22
2023-09-12T22:28:23.384Z,19.15
2023-09-12T22:30:25.571Z,18.95
2023-09-12T22:32:27.949Z,18.89
2023-09-12T22:34:30.250Z,18.88
2023-09-12T22:36:32.661Z,18.82
2023-09-12T22:38:35.334Z,18.89
2023-09-12T22:40:37.589Z,18.79
2023-09-12T22:42:39.889Z,18.79
2023-09-12T22:44:42.366Z,18.70
2023-09-12T22:46:44.583Z,18.66
2023-09-12T22:48:46.867Z,18.69
2023-09-12T22:50:49.337Z,18.65
2023-09-12T22:52:51.753Z,18.68
2023-09-12T22:54:54.059Z,18.67
2023-09-12T22:56:56.535Z,18.69
2023-09-12T22:59:00.482Z,18.68
2023-09-12T23:01:04.101Z,18.67
2023-09-12T23:03:07.440Z,18.53
2023-09-12T23:05:10.292Z,18.59
2023-09-12T23:07:13.164Z,18.52
2023-09-12T23:09:15.421Z,18.46
2023-09-12T23:11:18.174Z,18.44
2023-09-12T23:13:21.278Z,18.40
2023-09-12T23:15:25.596Z,18.44
2023-09-12T23:17:27.945Z,18.43
2023-09-12T23:19:30.406Z,18.40
2023-09-12T23:21:32.686Z,18.39
2023-09-12T23:23:34.976Z,18.43
2023-09-12T23:25:37.265Z,18.35
2023-09-12T23:27:40.542Z,18.41
2023-09-12T23:29:43.142Z,18.34
2023-09-12T23:31:45.647Z,18.38
2023-09-12T23:33:48.200Z,18.28
2023-09-12T23:35:50.710Z,18.34
2023-09-12T23:37:53.110Z,18.39
2023-09-12T23:39:57.598Z,18.29
2023-09-12T23:41:59.977Z,18.25
2023-09-12T23:44:02.473Z,18.24
2023-09-12T23:46:05.375Z,18.29
2023-09-12T23:48:07.900Z,18.25
2023-09-12T23:50:11.480Z,18.25
2023-09-12T23:52:14.298Z,18.20
2023-09-12T23:54:17.485Z,18.13
2023-09-12T23:56:19.765Z,18.10
2023-09-12T23:58:22.340Z,18.14
